createdAt,value
2019-03-21T00:01:42.494Z,127.53
2019-03-21T00:04:11.388Z,110.13
2019-03-21T00:06:39.156Z,140.33
2019-03-21T00:09:08.139Z,126.20
2019-03-21T00:11:54.453Z,132.93
2019-03-21T00:14:30.824Z,142.93
2019-03-21T00:16:59.122Z,125.10
2019-03-21T00:19:27.177Z,123.67
2019-03-21T00:21:55.335Z,146.70
2019-03-21T00:24:23.609Z,142.33
2019-03-21T00:26:51.504Z,147.37
2019-03-21T00:29:19.288Z,142.27
2019-03-21T00:31:47.838Z,135.70
2019-03-21T00:34:15.657Z,249.23
2019-03-21T00:36:44.274Z,576.43
2019-03-21T00:39:12.184Z,743.50
2019-03-21T00:41:41.205Z,501.83
2019-03-21T00:44:17.860Z,594.67
2019-03-21T00:46:38.802Z,608.93
2019-03-21T00:49:06.934Z,634.33
2019-03-21T00:51:35.262Z,495.33
2019-03-21T00:54:03.302Z,373.60
2019-03-21T00:56:31.293Z,374.70
2019-03-21T00:58:59.171Z,236.53
2019-03-21T01:01:27.075Z,373.83
2019-03-21T01:03:54.894Z,162.97
2019-03-21T01:06:23.652Z,140.23
2019-03-21T01:08:51.857Z,121.03
2019-03-21T01:11:20.063Z,140.00
2019-03-21T01:13:48.539Z,170.17
2019-03-21T01:16:16.517Z,142.07
2019-03-21T01:18:44.675Z,195.50
2019-03-21T01:21:12.457Z,141.27
2019-03-21T01:23:40.315Z,166.67
2019-03-21T01:26:08.818Z,175.63
2019-03-21T01:28:36.625Z,159.13
2019-03-21T01:31:05.334Z,164.57
2019-03-21T01:33:34.501Z,185.27
2019-03-21T01:36:02.988Z,191.80
2019-03-21T01:38:31.066Z,194.27
2019-03-21T01:40:59.679Z,189.10
2019-03-21T01:43:34.514Z,212.67
2019-03-21T01:46:03.669Z,246.13
2019-03-21T01:48:31.975Z,188.63
2019-03-21T01:51:00.277Z,228.20
2019-03-21T01:53:28.324Z,240.30
2019-03-21T01:55:56.164Z,253.73
2019-03-21T01:58:24.681Z,263.17
2019-03-21T02:00:52.521Z,239.87
2019-03-21T02:03:20.393Z,254.40
2019-03-21T02:05:48.251Z,228.70
2019-03-21T02:08:16.616Z,219.93
2019-03-21T02:10:44.599Z,240.73
2019-03-21T02:13:12.494Z,339.83
2019-03-21T02:15:40.833Z,252.00
2019-03-21T02:18:08.983Z,279.20
2019-03-21T02:20:37.209Z,164.30
2019-03-21T02:23:05.463Z,161.60
2019-03-21T02:25:33.641Z,144.17
2019-03-21T02:28:01.532Z,158.70
2019-03-21T02:30:30.927Z,172.73
2019-03-21T02:33:03.812Z,204.30
2019-03-21T02:35:32.049Z,207.70
2019-03-21T02:38:00.139Z,237.63
2019-03-21T02:40:28.021Z,199.20
2019-03-21T02:42:56.043Z,191.73
2019-03-21T02:45:23.908Z,157.73
2019-03-21T02:47:52.409Z,142.93
2019-03-21T02:50:21.926Z,156.73
2019-03-21T02:52:50.434Z,248.47
2019-03-21T02:55:18.294Z,152.13
2019-03-21T02:57:46.445Z,155.67
2019-03-21T03:00:15.915Z,228.13
2019-03-21T03:02:44.118Z,178.13
2019-03-21T03:05:15.131Z,212.10
2019-03-21T03:07:42.939Z,183.67
2019-03-21T03:10:11.818Z,254.40
2019-03-21T03:12:39.708Z,234.23
2019-03-21T03:15:21.766Z,414.47
2019-03-21T03:17:38.742Z,458.97
2019-03-21T03:20:07.169Z,514.23
2019-03-21T03:22:35.372Z,479.30
2019-03-21T03:25:03.549Z,514.17
2019-03-21T03:27:31.412Z,557.07
2019-03-21T03:29:59.279Z,314.90
2019-03-21T03:32:27.137Z,202.00
2019-03-21T03:34:55.021Z,392.93
2019-03-21T03:37:23.677Z,439.17
2019-03-21T03:39:52.335Z,271.97
2019-03-21T03:42:20.324Z,243.93
2019-03-21T03:44:48.825Z,253.07
2019-03-21T03:47:17.004Z,265.50
2019-03-21T03:49:44.769Z,269.03
2019-03-21T03:52:12.660Z,245.70
2019-03-21T03:54:40.510Z,244.93
2019-03-21T03:57:08.784Z,233.83
2019-03-21T03:59:37.317Z,224.77
2019-03-21T04:02:05.239Z,248.90
2019-03-21T04:04:33.462Z,222.47
2019-03-21T04:07:01.346Z,177.60
2019-03-21T04:09:29.498Z,203.30
2019-03-21T04:11:58.226Z,197.10
2019-03-21T04:14:26.483Z,195.67
2019-03-21T04:16:54.715Z,214.13
2019-03-21T04:19:22.582Z,247.60
2019-03-21T04:21:50.370Z,248.23
2019-03-21T04:24:18.270Z,222.77
2019-03-21T04:26:46.192Z,214.73
2019-03-21T04:29:15.028Z,411.50
2019-03-21T04:31:43.428Z,636.87
2019-03-21T04:34:12.016Z,558.23
2019-03-21T04:36:40.633Z,563.47
2019-03-21T04:39:09.013Z,685.93
2019-03-21T04:41:37.472Z,251.40
2019-03-21T04:44:05.332Z,648.80
2019-03-21T04:46:33.192Z,489.37
2019-03-21T04:49:01.114Z,498.70
2019-03-21T04:51:28.978Z,551.37
2019-03-21T04:53:57.167Z,571.43
2019-03-21T04:56:25.044Z,380.10
2019-03-21T04:58:52.946Z,296.50
2019-03-21T05:01:20.819Z,399.23
2019-03-21T05:03:49.935Z,471.93
2019-03-21T05:06:18.556Z,497.03
2019-03-21T05:08:46.462Z,370.50
2019-03-21T05:11:14.319Z,330.70
2019-03-21T05:13:42.090Z,329.27
2019-03-21T05:16:14.798Z,333.43
2019-03-21T05:18:40.499Z,362.67
2019-03-21T05:21:08.778Z,355.00
2019-03-21T05:23:36.525Z,375.87
2019-03-21T05:26:04.398Z,377.03
2019-03-21T05:28:32.249Z,383.77
2019-03-21T05:31:04.544Z,404.20
2019-03-21T05:33:32.410Z,403.83
2019-03-21T05:36:00.514Z,405.40
2019-03-21T05:38:28.740Z,460.80
2019-03-21T05:40:56.623Z,464.67
2019-03-21T05:43:43.724Z,459.83
2019-03-21T05:46:11.581Z,489.90
2019-03-21T05:48:40.257Z,473.40
2019-03-21T05:51:08.498Z,500.23
2019-03-21T05:53:36.379Z,487.43
2019-03-21T05:56:04.362Z,507.23
2019-03-21T05:58:32.964Z,505.67
2019-03-21T06:01:01.019Z,470.07
2019-03-21T06:03:30.627Z,491.20
2019-03-21T06:06:00.677Z,468.60
2019-03-21T06:08:29.996Z,489.80
2019-03-21T06:10:57.861Z,479.30
2019-03-21T06:13:25.756Z,445.67
2019-03-21T06:15:53.632Z,408.33
2019-03-21T06:18:37.943Z,471.83
2019-03-21T06:21:11.086Z,414.67
2019-03-21T06:23:45.443Z,389.20
2019-03-21T06:26:25.785Z,353.50
2019-03-21T06:28:54.796Z,363.90
2019-03-21T06:31:23.279Z,372.70
2019-03-21T06:33:51.292Z,367.80
2019-03-21T06:36:19.420Z,360.87
2019-03-21T06:38:47.332Z,361.50
2019-03-21T06:41:15.125Z,361.07
2019-03-21T06:43:44.160Z,347.10
2019-03-21T06:46:12.532Z,372.53
2019-03-21T06:48:40.910Z,363.47
2019-03-21T06:51:08.772Z,364.70
2019-03-21T06:53:36.676Z,357.27
2019-03-21T06:56:05.131Z,340.07
2019-03-21T06:58:33.156Z,335.10
2019-03-21T07:01:01.017Z,346.07
2019-03-21T07:03:28.959Z,303.03
2019-03-21T07:05:56.827Z,310.17
2019-03-21T07:08:24.713Z,338.10
2019-03-21T07:10:52.520Z,346.83
2019-03-21T07:13:20.481Z,302.00
2019-03-21T07:15:48.571Z,316.97
2019-03-21T07:18:16.419Z,319.90
2019-03-21T07:20:44.594Z,313.03
2019-03-21T07:23:12.778Z,289.87
2019-03-21T07:25:40.731Z,302.97
2019-03-21T07:28:08.668Z,348.60
2019-03-21T07:30:36.550Z,312.57
2019-03-21T07:33:04.622Z,321.33
2019-03-21T07:35:32.648Z,301.73
2019-03-21T07:38:00.792Z,286.33
2019-03-21T07:40:28.609Z,274.13
2019-03-21T07:42:56.836Z,274.97
2019-03-21T07:45:24.739Z,236.13
2019-03-21T07:47:52.806Z,244.80
2019-03-21T07:50:20.643Z,233.80
2019-03-21T07:52:48.754Z,261.77
2019-03-21T07:55:16.573Z,275.73
2019-03-21T07:57:45.096Z,243.57
2019-03-21T08:00:13.349Z,336.53
2019-03-21T08:02:41.183Z,291.90
2019-03-21T08:05:09.579Z,327.03
2019-03-21T08:07:38.963Z,210.63
2019-03-21T08:10:06.892Z,171.07
2019-03-21T08:12:35.214Z,159.03
2019-03-21T08:15:03.776Z,220.77
2019-03-21T08:17:31.705Z,192.13
2019-03-21T08:19:59.551Z,183.53
2019-03-21T08:22:27.398Z,203.97
2019-03-21T08:24:55.264Z,140.30
2019-03-21T08:27:24.149Z,101.83
2019-03-21T08:29:52.045Z,104.87
2019-03-21T08:32:20.118Z,84.43
2019-03-21T08:34:47.989Z,111.13
2019-03-21T08:37:16.026Z,76.67
2019-03-21T08:39:43.850Z,53.07
2019-03-21T08:42:11.729Z,70.77
2019-03-21T08:44:39.501Z,63.70
2019-03-21T08:47:07.628Z,45.37
2019-03-21T08:49:35.599Z,51.63
2019-03-21T08:52:03.510Z,51.37
2019-03-21T08:54:31.496Z,40.60
2019-03-21T08:56:59.363Z,40.10
2019-03-21T08:59:27.262Z,37.23
2019-03-21T09:01:55.128Z,22.47
2019-03-21T09:04:23.568Z,25.07
2019-03-21T09:06:52.732Z,19.37
2019-03-21T09:09:21.287Z,26.73
2019-03-21T09:11:49.205Z,22.47
2019-03-21T09:14:17.153Z,22.10
2019-03-21T09:16:45.016Z,22.70
2019-03-21T09:19:12.839Z,19.97
2019-03-21T09:21:41.075Z,22.20
2019-03-21T09:24:08.979Z,22.93
2019-03-21T09:26:37.136Z,22.20
2019-03-21T09:29:04.865Z,25.80
2019-03-21T09:31:32.833Z,22.03
2019-03-21T09:34:01.143Z,20.73
2019-03-21T09:36:29.048Z,21.63
2019-03-21T09:38:57.286Z,21.50
2019-03-21T09:41:25.869Z,22.57
2019-03-21T09:43:54.046Z,23.03
2019-03-21T09:46:22.114Z,20.27
2019-03-21T09:48:50.231Z,21.20
2019-03-21T09:51:30.354Z,23.03
2019-03-21T09:53:48.719Z,24.37
2019-03-21T09:56:16.555Z,27.17
2019-03-21T09:58:44.744Z,24.33
2019-03-21T10:01:12.970Z,26.87
2019-03-21T10:03:40.988Z,24.50
2019-03-21T10:06:08.705Z,22.80
2019-03-21T10:08:36.433Z,23.07
2019-03-21T10:11:04.784Z,20.93
2019-03-21T10:13:32.610Z,23.37
2019-03-21T10:16:00.544Z,24.33
2019-03-21T10:18:28.378Z,24.33
2019-03-21T10:20:57.482Z,24.47
2019-03-21T10:23:25.764Z,25.87
2019-03-21T10:25:53.644Z,26.40
2019-03-21T10:28:21.488Z,23.93
2019-03-21T10:30:49.642Z,23.07
2019-03-21T10:33:18.021Z,22.70
2019-03-21T10:35:45.933Z,22.80
2019-03-21T10:38:13.797Z,24.67
2019-03-21T10:40:41.700Z,23.40
2019-03-21T10:43:10.695Z,23.83
2019-03-21T10:45:38.784Z,23.10
2019-03-21T10:48:06.632Z,21.87
2019-03-21T10:50:35.339Z,22.77
2019-03-21T10:53:03.643Z,22.70
2019-03-21T10:55:31.550Z,22.73
2019-03-21T10:57:59.331Z,21.37
2019-03-21T11:00:28.850Z,23.20
2019-03-21T11:02:56.715Z,20.57
2019-03-21T11:05:25.333Z,21.87
2019-03-21T11:07:54.797Z,20.97
2019-03-21T11:10:22.925Z,20.20
2019-03-21T11:12:50.657Z,18.47
2019-03-21T11:15:18.820Z,19.40
2019-03-21T11:17:46.678Z,19.90
2019-03-21T11:20:18.563Z,17.57
2019-03-21T11:22:46.529Z,16.70
2019-03-21T11:25:14.489Z,18.73
2019-03-21T11:27:42.315Z,18.47
2019-03-21T11:30:16.264Z,16.70
2019-03-21T11:32:42.592Z,18.20
2019-03-21T11:35:10.451Z,17.03
2019-03-21T11:37:38.516Z,13.97
2019-03-21T11:40:06.922Z,14.10
2019-03-21T11:42:34.661Z,18.77
2019-03-21T11:45:03.355Z,17.30
2019-03-21T11:47:41.357Z,17.83
2019-03-21T11:50:00.840Z,14.50
2019-03-21T11:52:28.886Z,14.33
2019-03-21T11:54:56.803Z,13.47
2019-03-21T11:57:24.995Z,13.37
2019-03-21T11:59:53.018Z,18.60
2019-03-21T12:02:27.000Z,12.77
2019-03-21T12:04:50.600Z,14.17
2019-03-21T12:07:18.409Z,13.90
2019-03-21T12:09:46.139Z,17.73
2019-03-21T12:12:14.073Z,15.83
2019-03-21T12:14:41.906Z,18.30
2019-03-21T12:17:09.607Z,13.43
2019-03-21T12:19:37.459Z,13.10
2019-03-21T12:22:05.290Z,11.87
2019-03-21T12:24:33.449Z,12.50
2019-03-21T12:27:01.680Z,11.97
2019-03-21T12:29:29.909Z,11.03
2019-03-21T12:31:57.823Z,14.87
2019-03-21T12:34:26.078Z,12.73
2019-03-21T12:36:53.995Z,12.03
2019-03-21T12:39:22.028Z,13.27
2019-03-21T12:41:49.904Z,12.60
2019-03-21T12:44:17.837Z,10.77
2019-03-21T12:47:14.505Z,11.27
2019-03-21T12:49:42.300Z,12.93
2019-03-21T12:52:10.271Z,11.73
2019-03-21T12:54:39.124Z,12.63
2019-03-21T12:57:06.967Z,15.33
2019-03-21T12:59:35.615Z,9.50
2019-03-21T13:02:03.657Z,10.47
2019-03-21T13:07:39.888Z,11.97
2019-03-21T13:10:08.457Z,9.87
2019-03-21T13:12:36.307Z,10.80
2019-03-21T13:15:06.119Z,9.37
2019-03-21T13:17:33.997Z,9.70
2019-03-21T13:20:02.958Z,12.43
2019-03-21T13:22:31.329Z,10.70
2019-03-21T13:25:18.504Z,10.58
2019-03-21T13:27:46.868Z,10.77
2019-03-21T13:30:15.080Z,9.80
2019-03-21T13:32:42.837Z,13.47
2019-03-21T13:35:10.773Z,9.50
2019-03-21T13:37:38.653Z,9.80
2019-03-21T13:40:06.887Z,8.97
2019-03-21T13:42:34.766Z,10.33
2019-03-21T13:45:02.991Z,10.40
2019-03-21T13:47:30.931Z,9.75
2019-03-21T13:49:59.782Z,8.15
2019-03-21T13:52:27.692Z,8.43
2019-03-21T13:54:55.723Z,10.18
2019-03-21T13:57:23.927Z,9.87
2019-03-21T13:59:52.183Z,9.70
2019-03-21T14:02:20.419Z,9.40
2019-03-21T14:04:48.569Z,8.67
2019-03-21T14:07:17.331Z,8.30
2019-03-21T14:09:46.008Z,10.00
2019-03-21T14:12:13.955Z,7.58
2019-03-21T14:14:41.856Z,7.75
2019-03-21T14:17:21.376Z,8.40
2019-03-21T14:19:40.041Z,8.63
2019-03-21T14:22:08.024Z,10.40
2019-03-21T14:24:36.277Z,8.00
2019-03-21T14:27:04.176Z,8.13
2019-03-21T14:29:32.059Z,8.60
2019-03-21T14:31:59.972Z,7.80
2019-03-21T14:34:28.134Z,9.73
2019-03-21T14:36:56.919Z,9.57
2019-03-21T14:39:24.890Z,9.47
2019-03-21T14:41:53.068Z,8.47
2019-03-21T14:44:20.960Z,8.17
2019-03-21T14:46:48.902Z,7.73
2019-03-21T14:49:16.879Z,8.07
2019-03-21T14:51:44.738Z,7.62
2019-03-21T14:54:12.614Z,7.55
2019-03-21T14:56:40.492Z,7.73
2019-03-21T14:59:08.805Z,7.60
2019-03-21T15:01:37.156Z,8.00
2019-03-21T15:04:05.027Z,7.93
2019-03-21T15:06:34.282Z,8.10
2019-03-21T15:09:02.154Z,7.57
2019-03-21T15:11:30.070Z,8.03
2019-03-21T15:13:58.429Z,7.83
2019-03-21T15:16:26.708Z,8.60
2019-03-21T15:18:54.584Z,8.55
2019-03-21T15:21:22.741Z,8.67
2019-03-21T15:23:59.364Z,7.97
2019-03-21T15:26:20.289Z,8.88
2019-03-21T15:28:48.198Z,9.20
2019-03-21T15:31:16.033Z,8.20
2019-03-21T15:33:43.924Z,9.40
2019-03-21T15:36:12.060Z,8.97
2019-03-21T15:38:39.945Z,8.53
2019-03-21T15:41:07.828Z,8.03
2019-03-21T15:43:35.974Z,9.40
2019-03-21T15:46:04.445Z,11.17
2019-03-21T15:48:32.824Z,8.33
2019-03-21T15:51:04.901Z,9.07
2019-03-21T15:53:30.705Z,10.67
2019-03-21T15:55:58.588Z,9.90
2019-03-21T15:58:26.462Z,11.10
2019-03-21T16:00:54.882Z,8.93
2019-03-21T16:03:23.497Z,8.00
2019-03-21T16:05:51.587Z,8.77
2019-03-21T16:08:21.913Z,9.10
2019-03-21T16:10:50.072Z,9.07
2019-03-21T16:13:18.003Z,8.97
2019-03-21T16:15:45.835Z,9.90
2019-03-21T16:18:13.787Z,10.73
2019-03-21T16:20:41.951Z,17.43
2019-03-21T16:23:09.868Z,18.13
2019-03-21T16:25:38.944Z,22.87
2019-03-21T16:28:06.882Z,27.63
2019-03-21T16:30:35.105Z,23.43
2019-03-21T16:33:02.984Z,21.70
2019-03-21T16:35:31.277Z,24.50
2019-03-21T16:37:59.875Z,24.47
2019-03-21T16:40:27.725Z,24.10
2019-03-21T16:42:56.236Z,24.57
2019-03-21T16:45:24.700Z,27.00
2019-03-21T16:47:52.643Z,25.60
2019-03-21T16:50:20.562Z,27.63
2019-03-21T16:52:48.599Z,25.13
2019-03-21T16:55:16.698Z,28.07
2019-03-21T16:57:44.606Z,22.97
2019-03-21T17:00:12.961Z,23.33
2019-03-21T17:02:41.267Z,28.20
2019-03-21T17:05:09.536Z,25.47
2019-03-21T17:07:37.783Z,32.40
2019-03-21T17:10:06.483Z,29.00
2019-03-21T17:12:34.520Z,24.93
2019-03-21T17:15:02.398Z,26.80
2019-03-21T17:17:30.711Z,25.57
2019-03-21T17:19:58.618Z,25.37
2019-03-21T17:22:26.612Z,28.17
2019-03-21T17:24:54.520Z,26.37
2019-03-21T17:27:23.808Z,27.97
2019-03-21T17:29:52.474Z,31.77
2019-03-21T17:32:20.380Z,29.13
2019-03-21T17:34:48.337Z,26.00
2019-03-21T17:37:16.566Z,33.30
2019-03-21T17:39:44.547Z,37.43
2019-03-21T17:42:12.789Z,38.37
2019-03-21T17:44:41.060Z,35.03
2019-03-21T17:47:09.128Z,34.13
2019-03-21T17:49:37.090Z,35.70
2019-03-21T17:52:05.659Z,36.50
2019-03-21T17:54:41.521Z,37.60
2019-03-21T17:57:03.612Z,40.23
2019-03-21T17:59:31.558Z,40.10
2019-03-21T18:02:00.432Z,43.67
2019-03-21T18:04:28.703Z,46.90
2019-03-21T18:06:56.592Z,54.53
2019-03-21T18:09:24.473Z,57.57
2019-03-21T18:11:52.720Z,52.83
2019-03-21T18:14:20.810Z,52.07
2019-03-21T18:16:49.014Z,57.43
2019-03-21T18:19:17.125Z,60.93
2019-03-21T18:21:45.159Z,57.27
2019-03-21T18:24:13.270Z,65.90
2019-03-21T18:26:41.395Z,73.10
2019-03-21T18:29:09.667Z,99.10
2019-03-21T18:31:37.549Z,86.27
2019-03-21T18:34:05.461Z,86.03
2019-03-21T18:36:33.840Z,86.30
2019-03-21T18:39:01.899Z,88.43
2019-03-21T18:41:29.981Z,115.50
2019-03-21T18:43:57.867Z,117.87
2019-03-21T18:46:27.684Z,115.23
2019-03-21T18:48:56.229Z,120.27
2019-03-21T18:51:24.143Z,113.53
2019-03-21T18:53:56.095Z,115.07
2019-03-21T18:56:24.156Z,122.50
2019-03-21T18:58:52.419Z,128.00
2019-03-21T19:01:20.506Z,139.37
2019-03-21T19:03:48.880Z,118.13
2019-03-21T19:06:17.239Z,139.43
2019-03-21T19:08:45.556Z,134.30
2019-03-21T19:11:14.969Z,140.87
2019-03-21T19:13:42.908Z,140.37
2019-03-21T19:16:10.821Z,141.97
2019-03-21T19:18:38.916Z,130.87
2019-03-21T19:21:07.854Z,141.80
2019-03-21T19:23:35.744Z,143.20
2019-03-21T19:26:03.901Z,142.27
2019-03-21T19:28:32.008Z,149.70
2019-03-21T19:31:00.121Z,145.40
2019-03-21T19:33:28.777Z,143.97
2019-03-21T19:35:56.753Z,127.73
2019-03-21T19:38:24.642Z,127.03
2019-03-21T19:40:52.710Z,127.77
2019-03-21T19:43:20.624Z,122.07
2019-03-21T19:45:48.514Z,113.50
2019-03-21T19:48:16.580Z,118.00
2019-03-21T19:50:44.448Z,116.33
2019-03-21T19:53:12.629Z,106.07
2019-03-21T19:55:41.047Z,105.10
2019-03-21T19:58:08.980Z,95.27
2019-03-21T20:00:36.910Z,90.30
2019-03-21T20:03:04.842Z,87.03
2019-03-21T20:05:33.817Z,79.10
2019-03-21T20:08:02.210Z,87.53
2019-03-21T20:10:30.698Z,90.27
2019-03-21T20:12:58.628Z,91.47
2019-03-21T20:15:26.874Z,86.83
2019-03-21T20:17:54.735Z,72.57
2019-03-21T20:20:23.350Z,87.27
2019-03-21T20:22:51.245Z,77.03
2019-03-21T20:25:19.147Z,85.20
2019-03-21T20:27:47.170Z,73.93
2019-03-21T20:30:15.801Z,82.93
2019-03-21T20:32:44.486Z,70.47
2019-03-21T20:35:12.711Z,72.00
2019-03-21T20:37:40.760Z,73.30
2019-03-21T20:40:09.182Z,74.47
2019-03-21T20:42:37.290Z,68.10
2019-03-21T20:45:06.135Z,70.87
2019-03-21T20:47:35.109Z,65.63
2019-03-21T20:50:04.046Z,65.33
2019-03-21T20:52:32.171Z,71.00
2019-03-21T20:55:00.404Z,72.93
2019-03-21T20:57:29.018Z,64.43
2019-03-21T20:59:57.422Z,70.40
2019-03-21T21:02:25.922Z,72.97
2019-03-21T21:04:53.954Z,64.13
2019-03-21T21:07:21.890Z,65.63
2019-03-21T21:09:49.827Z,64.77
2019-03-21T21:12:17.919Z,67.73
2019-03-21T21:14:47.266Z,72.67
2019-03-21T21:17:15.347Z,67.97
2019-03-21T21:19:43.814Z,70.07
2019-03-21T21:22:11.663Z,74.23
2019-03-21T21:24:39.604Z,68.03
2019-03-21T21:27:07.950Z,76.10
2019-03-21T21:29:35.885Z,71.73
2019-03-21T21:32:04.283Z,69.73
2019-03-21T21:34:32.221Z,80.73
2019-03-21T21:37:00.182Z,71.97
2019-03-21T21:39:28.811Z,71.93
2019-03-21T21:41:56.877Z,78.00
2019-03-21T21:44:25.065Z,77.43
2019-03-21T21:46:52.969Z,89.57
2019-03-21T21:49:20.864Z,86.70
2019-03-21T21:51:48.752Z,82.50
2019-03-21T21:54:16.926Z,85.27
2019-03-21T21:56:44.803Z,86.07
2019-03-21T21:59:12.709Z,86.70
2019-03-21T22:01:40.576Z,92.43
2019-03-21T22:04:08.466Z,92.40
2019-03-21T22:06:36.683Z,96.23
2019-03-21T22:09:05.905Z,91.83
2019-03-21T22:11:33.763Z,91.43
2019-03-21T22:14:02.002Z,89.43
2019-03-21T22:16:30.584Z,90.03
2019-03-21T22:18:58.584Z,100.57
2019-03-21T22:21:26.429Z,106.70
2019-03-21T22:23:54.329Z,100.73
2019-03-21T22:26:29.503Z,122.70
2019-03-21T22:28:51.934Z,138.97
2019-03-21T22:31:19.842Z,112.43
2019-03-21T22:33:48.127Z,109.80
2019-03-21T22:36:16.315Z,89.83
2019-03-21T22:38:44.269Z,89.60
2019-03-21T22:41:12.165Z,85.53
2019-03-21T22:43:41.228Z,92.87
2019-03-21T22:46:09.141Z,98.30
2019-03-21T22:48:37.481Z,88.67
2019-03-21T22:51:06.134Z,85.10
2019-03-21T22:53:33.906Z,115.83
2019-03-21T22:56:02.177Z,120.97
2019-03-21T22:58:31.878Z,118.93
2019-03-21T23:01:00.096Z,131.73
2019-03-21T23:03:28.002Z,136.63
2019-03-21T23:05:55.932Z,142.53
2019-03-21T23:08:24.110Z,141.70
2019-03-21T23:10:52.151Z,134.60
2019-03-21T23:13:20.204Z,139.43
2019-03-21T23:15:48.150Z,129.17
2019-03-21T23:18:16.065Z,119.57
2019-03-21T23:20:43.928Z,116.30
2019-03-21T23:23:11.819Z,120.30
2019-03-21T23:25:39.677Z,116.50
2019-03-21T23:28:07.549Z,116.27
2019-03-21T23:30:35.574Z,115.70
2019-03-21T23:33:03.715Z,106.40
2019-03-21T23:35:31.601Z,103.60
2019-03-21T23:37:59.511Z,114.77
2019-03-21T23:40:27.493Z,117.03
2019-03-21T23:42:55.372Z,113.17
2019-03-21T23:45:23.483Z,115.90
2019-03-21T23:47:51.587Z,107.60
2019-03-21T23:50:19.482Z,118.53
2019-03-21T23:52:47.705Z,118.87
2019-03-21T23:55:15.942Z,120.53
2019-03-21T23:57:43.912Z,116.67
